Time;durP1;ratioP1;P1;durP2;ratioP2;P2;SDS_P1;SDS_P2;PMS_P1;PMS_P2;Temp;Humidity;BMP_temperature;BMP_pressure;BME280_temperature;BME280_humidity;BME280_pressure;Samples;Min_cycle;Max_cycle;Signal;HPM_P1;HPM_P2
2023/10/08 00:01:55;;;;;;;;;;;;;;;;;;5073767;28;20012;-75
2023/10/08 00:04:23;;;;;;;;;;;;;;;;;;5072974;28;20651;-75
2023/10/08 00:06:52;;;;;;;;;;;;;;;;;;5068616;28;20042;-75
2023/10/08 00:09:20;;;;;;;;;;;;;;;;;;5073936;28;20340;-77
2023/10/08 00:11:52;;;;;;;;;;;;;;;;;;5072310;28;19982;-78
2023/10/08 00:14:21;;;;;;;;;;;;;;;;;;5072424;28;19930;-77
2023/10/08 00:16:49;;;;;;;;;;;;;;;;;;5072537;28;19925;-78
2023/10/08 00:19:18;;;;;;;;;;;;;;;;;;5073871;28;19999;-77
2023/10/08 00:21:48;;;;;;;;;;;;;;;;;;5073379;28;19967;-78
2023/10/08 00:24:15;;;;;;;;;;;;;;;;;;5071589;28;19931;-78
2023/10/08 00:26:43;;;;;;;;;;;;;;;;;;5071525;28;19925;-77
2023/10/08 00:29:16;;;;;;;;;;;;;;;;;;5073488;28;19924;-78
2023/10/08 00:31:44;;;;;;;;;;;;;;;;;;5069569;28;19971;-78
2023/10/08 00:34:13;;;;;;;;;;;;;;;;;;5071317;28;19924;-77
2023/10/08 00:36:41;;;;;;;;;;;;;;;;;;5071054;28;19943;-77
2023/10/08 00:39:13;;;;;;;;;;;;;;;;;;5072994;28;19928;-78
2023/10/08 00:41:40;;;;;;;;;;;;;;;;;;5072137;28;19924;-77
2023/10/08 00:44:07;;;;;;;;;;;;;;;;;;5073160;28;19925;-78
2023/10/08 00:46:39;;;;;;;;;;;;;;;;;;5072330;28;19982;-77
2023/10/08 00:49:23;;;;;;;;;;;;;;;;;;5073553;28;20371;-77
2023/10/08 00:52:00;;;;;;;;;;;;;;;;;;5072857;28;20552;-77
2023/10/08 00:54:32;;;;;;;;;;;;;;;;;;5073321;28;19924;-77
2023/10/08 00:57:03;;;;;;;;;;;;;;;;;;5070756;28;20028;-77
2023/10/08 00:59:44;;;;;;;;;;;;;;;;;;5073516;28;19924;-77
2023/10/08 01:02:15;;;;;;;;;;;;;;;;;;5072517;28;19946;-77
2023/10/08 01:04:43;;;;;;;;;;;;;;;;;;5072605;28;19924;-78
2023/10/08 01:07:12;;;;;;;;;;;;;;;;;;5071502;28;19925;-77
2023/10/08 01:09:42;;;;;;;;;;;;;;;;;;5072493;28;20391;-77
2023/10/08 01:12:12;;;;;;;;;;;;;;;;;;5070697;28;19924;-77
2023/10/08 01:14:42;;;;;;;;;;;;;;;;;;5072285;28;20011;-77
2023/10/08 01:17:09;;;;;;;;;;;;;;;;;;5071886;28;19925;-77
2023/10/08 01:19:42;;;;;;;;;;;;;;;;;;5072753;28;19931;-78
2023/10/08 01:22:16;;;;;;;;;;;;;;;;;;5071842;28;19985;-78
2023/10/08 01:24:44;;;;;;;;;;;;;;;;;;5073026;28;20299;-77
2023/10/08 01:27:12;;;;;;;;;;;;;;;;;;5070815;28;19955;-77
2023/10/08 01:29:39;;;;;;;;;;;;;;;;;;5072756;28;19928;-77
2023/10/08 01:32:11;;;;;;;;;;;;;;;;;;5068212;28;19928;-78
2023/10/08 01:34:39;;;;;;;;;;;;;;;;;;5072584;28;19932;-78
2023/10/08 01:37:08;;;;;;;;;;;;;;;;;;5070517;28;19946;-77
2023/10/08 01:39:35;;;;;;;;;;;;;;;;;;5071941;28;19925;-76
2023/10/08 01:42:05;;;;;;;;;;;;;;;;;;5070338;28;19986;-76
2023/10/08 01:44:33;;;;;;;;;;;;;;;;;;5071808;28;20307;-76
2023/10/08 01:47:00;;;;;;;;;;;;;;;;;;5071360;28;19924;-76
2023/10/08 01:49:33;;;;;;;;;;;;;;;;;;5071743;28;19978;-76
2023/10/08 01:52:05;;;;;;;;;;;;;;;;;;5070532;28;19931;-76
2023/10/08 01:54:35;;;;;;;;;;;;;;;;;;5071828;28;19938;-76
2023/10/08 01:57:03;;;;;;;;;;;;;;;;;;5070911;28;20034;-76
2023/10/08 01:59:30;;;;;;;;;;;;;;;;;;5071312;28;20011;-77
2023/10/08 02:01:57;;;;;;;;;;;;;;;;;;5071952;28;19970;-77
2023/10/08 02:04:25;;;;;;;;;;;;;;;;;;5071958;28;19975;-77
2023/10/08 02:06:52;;;;;;;;;;;;;;;;;;5064149;28;19928;-78
2023/10/08 02:09:25;;;;;;;;;;;;;;;;;;5070784;28;19993;-77
2023/10/08 02:11:53;;;;;;;;;;;;;;;;;;5067877;28;19932;-77
2023/10/08 02:14:20;;;;;;;;;;;;;;;;;;5074362;28;20011;-77
2023/10/08 02:16:47;;;;;;;;;;;;;;;;;;5072872;28;19929;-77
2023/10/08 02:19:18;;;;;;;;;;;;;;;;;;5073963;28;19925;-76
2023/10/08 02:21:46;;;;;;;;;;;;;;;;;;5072321;28;20032;-77
2023/10/08 02:24:13;;;;;;;;;;;;;;;;;;5071032;28;19930;-76
2023/10/08 02:26:40;;;;;;;;;;;;;;;;;;5073583;28;19924;-77
2023/10/08 02:29:10;;;;;;;;;;;;;;;;;;5074855;28;19977;-77
2023/10/08 02:31:37;;;;;;;;;;;;;;;;;;5074214;28;20672;-76
2023/10/08 02:34:07;;;;;;;;;;;;;;;;;;5074750;28;19939;-77
2023/10/08 02:36:36;;;;;;;;;;;;;;;;;;5072991;28;20001;-77
2023/10/08 02:39:06;;;;;;;;;;;;;;;;;;5073446;28;19924;-76
2023/10/08 02:41:33;;;;;;;;;;;;;;;;;;5071700;28;19935;-76
2023/10/08 02:44:01;;;;;;;;;;;;;;;;;;5074448;28;19924;-77
2023/10/08 02:46:30;;;;;;;;;;;;;;;;;;5074638;28;19932;-77
2023/10/08 02:48:58;;;;;;;;;;;;;;;;;;5074546;28;19947;-77
2023/10/08 02:51:25;;;;;;;;;;;;;;;;;;5073093;28;19998;-77
2023/10/08 02:53:52;;;;;;;;;;;;;;;;;;5074423;28;19928;-76
2023/10/08 02:56:21;;;;;;;;;;;;;;;;;;5069943;28;20522;-76
2023/10/08 02:58:48;;;;;;;;;;;;;;;;;;5074043;28;19971;-77
2023/10/08 03:01:15;;;;;;;;;;;;;;;;;;5073416;28;19924;-76
2023/10/08 03:03:42;;;;;;;;;;;;;;;;;;5073353;28;19924;-75
2023/10/08 03:06:11;;;;;;;;;;;;;;;;;;5073183;28;19924;-76
2023/10/08 03:08:40;;;;;;;;;;;;;;;;;;5073780;28;19925;-76
2023/10/08 03:11:07;;;;;;;;;;;;;;;;;;5072975;28;19924;-75
2023/10/08 03:13:38;;;;;;;;;;;;;;;;;;5073083;28;19932;-76
2023/10/08 03:16:09;;;;;;;;;;;;;;;;;;5073494;28;19935;-75
2023/10/08 03:18:36;;;;;;;;;;;;;;;;;;5073795;28;19932;-75
2023/10/08 03:21:04;;;;;;;;;;;;;;;;;;5069906;28;19925;-75
2023/10/08 03:23:34;;;;;;;;;;;;;;;;;;5068881;28;19924;-76
2023/10/08 03:26:10;;;;;;;;;;;;;;;;;;5068588;28;22043;-75
2023/10/08 03:28:37;;;;;;;;;;;;;;;;;;5073407;28;19924;-77
2023/10/08 03:31:04;;;;;;;;;;;;;;;;;;5073346;28;19924;-76
2023/10/08 03:33:34;;;;;;;;;;;;;;;;;;5073549;28;19924;-76
2023/10/08 03:36:08;;;;;;;;;;;;;;;;;;5072987;28;20801;-76
2023/10/08 03:38:44;;;;;;;;;;;;;;;;;;5073362;28;19972;-76
2023/10/08 03:41:16;;;;;;;;;;;;;;;;;;5068232;28;20306;-75
2023/10/08 03:43:52;;;;;;;;;;;;;;;;;;5071658;28;20239;-77
2023/10/08 03:46:21;;;;;;;;;;;;;;;;;;5072767;28;19936;-76
2023/10/08 03:48:51;;;;;;;;;;;;;;;;;;5071011;28;20019;-76
2023/10/08 03:51:20;;;;;;;;;;;;;;;;;;5073564;28;19924;-76
2023/10/08 03:53:59;;;;;;;;;;;;;;;;;;5072569;28;19924;-76
2023/10/08 03:56:29;;;;;;;;;;;;;;;;;;5069824;28;19932;-76
2023/10/08 03:59:00;;;;;;;;;;;;;;;;;;5072630;28;20444;-77
2023/10/08 04:01:32;;;;;;;;;;;;;;;;;;5072565;28;20406;-77
2023/10/08 04:04:00;;;;;;;;;;;;;;;;;;5071378;28;19925;-77
2023/10/08 04:06:37;;;;;;;;;;;;;;;;;;5072139;28;19931;-77
2023/10/08 04:09:16;;;;;;;;;;;;;;;;;;5072816;28;19932;-77
2023/10/08 04:11:51;;;;;;;;;;;;;;;;;;5070868;28;19932;-77
2023/10/08 04:14:18;;;;;;;;;;;;;;;;;;5072443;28;20351;-78
2023/10/08 04:16:45;;;;;;;;;;;;;;;;;;5072917;28;19925;-76
2023/10/08 04:19:12;;;;;;;;;;;;;;;;;;5072478;28;19925;-75
2023/10/08 04:21:42;;;;;;;;;;;;;;;;;;5072477;28;19978;-76
2023/10/08 04:24:10;;;;;;;;;;;;;;;;;;5071604;28;20014;-78
2023/10/08 04:26:40;;;;;;;;;;;;;;;;;;5069354;28;19974;-76
2023/10/08 04:29:08;;;;;;;;;;;;;;;;;;5072275;28;19924;-76
2023/10/08 04:31:38;;;;;;;;;;;;;;;;;;5073640;28;19982;-76
2023/10/08 04:34:15;;;;;;;;;;;;;;;;;;5072302;28;20015;-76
2023/10/08 04:36:42;;;;;;;;;;;;;;;;;;5069869;28;19930;-76
2023/10/08 04:39:15;;;;;;;;;;;;;;;;;;5072589;28;19925;-77
2023/10/08 04:41:43;;;;;;;;;;;;;;;;;;5067386;28;20023;-77
2023/10/08 04:44:15;;;;;;;;;;;;;;;;;;5071144;28;19967;-76
2023/10/08 04:46:51;;;;;;;;;;;;;;;;;;5072201;28;19924;-77
2023/10/08 04:49:26;;;;;;;;;;;;;;;;;;5074205;28;20011;-76
2023/10/08 04:51:56;;;;;;;;;;;;;;;;;;5072427;28;19925;-76
2023/10/08 04:54:23;;;;;;;;;;;;;;;;;;5070967;28;19930;-77
2023/10/08 04:56:52;;;;;;;;;;;;;;;;;;5071448;28;20026;-76
2023/10/08 04:59:22;;;;;;;;;;;;;;;;;;5072390;28;20319;-75
2023/10/08 05:02:12;;;;;;;;;;;;;;;;;;5068261;28;19925;-76
2023/10/08 05:04:47;;;;;;;;;;;;;;;;;;5071317;28;19975;-76
2023/10/08 05:07:40;;;;;;;;;;;;;;;;;;5069898;28;19928;-76
2023/10/08 05:10:31;;;;;;;;;;;;;;;;;;5071392;28;20391;-76
2023/10/08 05:13:15;;;;;;;;;;;;;;;;;;5065628;28;19928;-77
2023/10/08 05:15:42;;;;;;;;;;;;;;;;;;5069782;28;20019;-76
2023/10/08 05:18:23;;;;;;;;;;;;;;;;;;5071934;28;19932;-76
2023/10/08 05:21:15;;;;;;;;;;;;;;;;;;5072000;28;19924;-76
2023/10/08 05:24:08;;;;;;;;;;;;;;;;;;5069028;28;20315;-75
2023/10/08 05:26:41;;;;;;;;;;;;;;;;;;5071001;28;20013;-76
2023/10/08 05:32:17;;;;;;;;;;;;;;;;;;5070465;28;19924;-77
2023/10/08 05:34:42;;;;;;;;;;;;;;;;;;5070314;28;20019;-77
2023/10/08 05:37:31;;;;;;;;;;;;;;;;;;5066124;28;19928;-78
2023/10/08 05:40:11;;;;;;;;;;;;;;;;;;5070610;28;19925;-78
2023/10/08 05:42:46;;;;;;;;;;;;;;;;;;5070551;28;19925;-77
2023/10/08 05:45:29;;;;;;;;;;;;;;;;;;5071228;28;20513;-78
2023/10/08 05:48:08;;;;;;;;;;;;;;;;;;5067563;28;19978;-77
2023/10/08 05:50:54;;;;;;;;;;;;;;;;;;5068963;28;19956;-77
2023/10/08 05:53:43;;;;;;;;;;;;;;;;;;5071689;28;20299;-78
2023/10/08 05:56:28;;;;;;;;;;;;;;;;;;5069714;28;19925;-77
2023/10/08 05:59:14;;;;;;;;;;;;;;;;;;5070670;28;19925;-79
2023/10/08 06:01:42;;;;;;;;;;;;;;;;;;5070392;28;19938;-78
2023/10/08 06:07:12;;;;;;;;;;;;;;;;;;5050305;28;20291;-78
2023/10/08 06:09:39;;;;;;;;;;;;;;;;;;5070370;28;20327;-79
2023/10/08 06:12:12;;;;;;;;;;;;;;;;;;5069199;28;20015;-76
2023/10/08 06:15:08;;;;;;;;;;;;;;;;;;5071272;28;20024;-76
2023/10/08 06:17:44;;;;;;;;;;;;;;;;;;5071550;28;20302;-76
2023/10/08 06:20:16;;;;;;;;;;;;;;;;;;5068578;28;19925;-76
2023/10/08 06:22:43;;;;;;;;;;;;;;;;;;5065712;28;19963;-77
2023/10/08 06:25:18;;;;;;;;;;;;;;;;;;5061474;28;19932;-77
2023/10/08 06:27:45;;;;;;;;;;;;;;;;;;5065592;28;20026;-73
2023/10/08 06:30:16;;;;;;;;;;;;;;;;;;5069020;28;20019;-75
2023/10/08 06:32:44;;;;;;;;;;;;;;;;;;5067218;28;19940;-74
2023/10/08 06:35:17;;;;;;;;;;;;;;;;;;5068201;28;19952;-74
2023/10/08 06:37:44;;;;;;;;;;;;;;;;;;5069398;28;19924;-74
2023/10/08 06:40:40;;;;;;;;;;;;;;;;;;5066473;28;20299;-74
2023/10/08 06:43:03;;;;;;;;;;;;;;;;;;5069590;28;19924;-74
2023/10/08 06:45:30;;;;;;;;;;;;;;;;;;5070633;28;19971;-74
2023/10/08 06:47:58;;;;;;;;;;;;;;;;;;5069849;28;20033;-74
2023/10/08 06:50:25;;;;;;;;;;;;;;;;;;5070341;28;19978;-74
2023/10/08 06:52:54;;;;;;;;;;;;;;;;;;5071082;28;19932;-73
2023/10/08 06:55:24;;;;;;;;;;;;;;;;;;5069082;28;20016;-74
2023/10/08 06:57:51;;;;;;;;;;;;;;;;;;5067661;28;19967;-75
2023/10/08 07:00:37;;;;;;;;;;;;;;;;;;5069787;28;19924;-74
2023/10/08 07:03:04;;;;;;;;;;;;;;;;;;5072894;28;20015;-75
2023/10/08 07:05:31;;;;;;;;;;;;;;;;;;5070764;28;19947;-74
2023/10/08 07:07:58;;;;;;;;;;;;;;;;;;5072742;28;19925;-75
2023/10/08 07:10:26;;;;;;;;;;;;;;;;;;5067044;28;19932;-75
2023/10/08 07:12:53;;;;;;;;;;;;;;;;;;5070314;28;20017;-75
2023/10/08 07:15:23;;;;;;;;;;;;;;;;;;5066544;28;20318;-76
2023/10/08 07:17:51;;;;;;;;;;;;;;;;;;5073381;28;20000;-75
2023/10/08 07:20:21;;;;;;;;;;;;;;;;;;5068864;28;20007;-75
2023/10/08 07:22:54;;;;;;;;;;;;;;;;;;5070959;28;20294;-74
2023/10/08 07:25:21;;;;;;;;;;;;;;;;;;5067588;28;19968;-75
2023/10/08 07:27:48;;;;;;;;;;;;;;;;;;5071671;28;20023;-75
2023/10/08 07:30:26;;;;;;;;;;;;;;;;;;5072552;28;19967;-75
2023/10/08 07:32:54;;;;;;;;;;;;;;;;;;5067884;28;20468;-75
2023/10/08 07:35:24;;;;;;;;;;;;;;;;;;5065983;28;19931;-75
2023/10/08 07:37:53;;;;;;;;;;;;;;;;;;5072780;28;20380;-75
2023/10/08 07:40:21;;;;;;;;;;;;;;;;;;5074269;28;20392;-76
2023/10/08 07:42:51;;;;;;;;;;;;;;;;;;5072611;28;19925;-75
2023/10/08 07:45:21;;;;;;;;;;;;;;;;;;5072288;28;20003;-75
2023/10/08 07:47:48;;;;;;;;;;;;;;;;;;5072481;28;19990;-75
2023/10/08 07:50:16;;;;;;;;;;;;;;;;;;5074440;28;20449;-75
2023/10/08 07:52:44;;;;;;;;;;;;;;;;;;5074536;28;19925;-75
2023/10/08 07:55:17;;;;;;;;;;;;;;;;;;5070780;28;20015;-76
2023/10/08 07:57:44;;;;;;;;;;;;;;;;;;5067491;28;19924;-76
2023/10/08 08:00:18;;;;;;;;;;;;;;;;;;5069369;28;20405;-76
2023/10/08 08:02:45;;;;;;;;;;;;;;;;;;5065646;28;19932;-75
2023/10/08 08:05:16;;;;;;;;;;;;;;;;;;5067048;28;19934;-75
2023/10/08 08:07:45;;;;;;;;;;;;;;;;;;5072843;28;19960;-76
2023/10/08 08:10:14;;;;;;;;;;;;;;;;;;5068000;28;19925;-75
2023/10/08 08:12:41;;;;;;;;;;;;;;;;;;5068937;28;19925;-76
2023/10/08 08:15:15;;;;;;;;;;;;;;;;;;5067286;28;20374;-75
2023/10/08 08:17:42;;;;;;;;;;;;;;;;;;5067733;28;20414;-75
2023/10/08 08:20:18;;;;;;;;;;;;;;;;;;5069772;28;19925;-75
2023/10/08 08:22:49;;;;;;;;;;;;;;;;;;5067061;28;19982;-75
2023/10/08 08:25:26;;;;;;;;;;;;;;;;;;5068918;28;19978;-76
2023/10/08 08:27:53;;;;;;;;;;;;;;;;;;5067956;28;19950;-76
2023/10/08 08:30:20;;;;;;;;;;;;;;;;;;5066843;28;19964;-76
2023/10/08 08:32:47;;;;;;;;;;;;;;;;;;5063552;28;19924;-76
2023/10/08 08:35:16;;;;;;;;;;;;;;;;;;5065229;28;20442;-76
2023/10/08 08:37:43;;;;;;;;;;;;;;;;;;5060950;28;19933;-75
2023/10/08 08:40:17;;;;;;;;;;;;;;;;;;5066764;28;19981;-76
2023/10/08 08:42:44;;;;;;;;;;;;;;;;;;5069172;28;19976;-76
2023/10/08 08:45:11;;;;;;;;;;;;;;;;;;5066670;28;19924;-76
2023/10/08 08:47:40;;;;;;;;;;;;;;;;;;5061494;28;19928;-76
2023/10/08 08:50:09;;;;;;;;;;;;;;;;;;5057605;28;19959;-76
2023/10/08 08:52:36;;;;;;;;;;;;;;;;;;5066505;28;19931;-76
2023/10/08 08:55:08;;;;;;;;;;;;;;;;;;5066296;28;19932;-77
2023/10/08 08:57:35;;;;;;;;;;;;;;;;;;5065972;28;20011;-76
2023/10/08 09:00:08;;;;;;;;;;;;;;;;;;5062066;28;20233;-76
2023/10/08 09:02:35;;;;;;;;;;;;;;;;;;5066017;28;19947;-76
2023/10/08 09:05:13;;;;;;;;;;;;;;;;;;5068390;28;19979;-76
2023/10/08 09:07:40;;;;;;;;;;;;;;;;;;5065500;28;19925;-76
2023/10/08 09:10:12;;;;;;;;;;;;;;;;;;5065675;28;19924;-77
2023/10/08 09:12:39;;;;;;;;;;;;;;;;;;5067396;28;19931;-76
2023/10/08 09:15:09;;;;;;;;;;;;;;;;;;5063592;28;21356;-75
2023/10/08 09:17:36;;;;;;;;;;;;;;;;;;5064413;28;19925;-76
2023/10/08 09:20:06;;;;;;;;;;;;;;;;;;5063615;28;20007;-76
2023/10/08 09:22:35;;;;;;;;;;;;;;;;;;5061374;28;19978;-75
2023/10/08 09:25:07;;;;;;;;;;;;;;;;;;5063816;28;19936;-75
2023/10/08 09:27:37;;;;;;;;;;;;;;;;;;5063279;28;20065;-76
2023/10/08 09:30:08;;;;;;;;;;;;;;;;;;5064837;28;19935;-76
2023/10/08 09:32:35;;;;;;;;;;;;;;;;;;5067790;28;19925;-76
2023/10/08 09:35:02;;;;;;;;;;;;;;;;;;5065647;28;20383;-76
2023/10/08 09:37:29;;;;;;;;;;;;;;;;;;5067340;28;19924;-76
2023/10/08 09:39:56;;;;;;;;;;;;;;;;;;5066077;28;20375;-76
2023/10/08 09:42:24;;;;;;;;;;;;;;;;;;5067413;28;20399;-75
2023/10/08 09:44:51;;;;;;;;;;;;;;;;;;5059395;28;19925;-75
2023/10/08 09:47:18;;;;;;;;;;;;;;;;;;5059599;28;19982;-75
2023/10/08 09:49:45;;;;;;;;;;;;;;;;;;5064629;28;19924;-75
2023/10/08 09:52:12;;;;;;;;;;;;;;;;;;5053255;28;20586;-78
2023/10/08 09:54:40;;;;;;;;;;;;;;;;;;5064050;28;19924;-77
2023/10/08 09:57:07;;;;;;;;;;;;;;;;;;5062720;28;19924;-76
2023/10/08 09:59:34;;;;;;;;;;;;;;;;;;5063719;28;19929;-75
2023/10/08 10:02:02;;;;;;;;;;;;;;;;;;5063540;28;19928;-75
2023/10/08 10:04:31;;;;;;;;;;;;;;;;;;5063099;28;20055;-77
2023/10/08 10:06:58;;;;;;;;;;;;;;;;;;5063421;28;20403;-75
2023/10/08 10:09:26;;;;;;;;;;;;;;;;;;5065124;28;20023;-74
2023/10/08 10:11:53;;;;;;;;;;;;;;;;;;5064807;28;19924;-74
2023/10/08 10:14:20;;;;;;;;;;;;;;;;;;5066578;28;20014;-76
2023/10/08 10:16:48;;;;;;;;;;;;;;;;;;5062519;28;19932;-74
2023/10/08 10:19:15;;;;;;;;;;;;;;;;;;5066476;28;19924;-74
2023/10/08 10:21:42;;;;;;;;;;;;;;;;;;5061733;28;20315;-75
2023/10/08 10:24:09;;;;;;;;;;;;;;;;;;5058697;28;19960;-75
2023/10/08 10:26:40;;;;;;;;;;;;;;;;;;5059806;28;19928;-75
2023/10/08 10:29:06;;;;;;;;;;;;;;;;;;5062476;28;20471;-75
2023/10/08 10:31:34;;;;;;;;;;;;;;;;;;5064271;28;19928;-75
2023/10/08 10:34:01;;;;;;;;;;;;;;;;;;5063073;28;19946;-75
2023/10/08 10:36:31;;;;;;;;;;;;;;;;;;5067408;28;19924;-77
2023/10/08 10:38:58;;;;;;;;;;;;;;;;;;5070977;28;19924;-75
2023/10/08 10:41:27;;;;;;;;;;;;;;;;;;5067567;28;20269;-76
2023/10/08 10:43:54;;;;;;;;;;;;;;;;;;5059383;28;19924;-75
2023/10/08 10:46:30;;;;;;;;;;;;;;;;;;5061504;28;19932;-76
2023/10/08 10:49:17;;;;;;;;;;;;;;;;;;5066142;28;19932;-75
2023/10/08 10:51:44;;;;;;;;;;;;;;;;;;5061931;28;20470;-75
2023/10/08 10:54:35;;;;;;;;;;;;;;;;;;5063654;28;19925;-75
2023/10/08 10:57:03;;;;;;;;;;;;;;;;;;5067521;28;19955;-76
2023/10/08 10:59:36;;;;;;;;;;;;;;;;;;5062808;28;19924;-76
2023/10/08 11:02:08;;;;;;;;;;;;;;;;;;5062350;28;19939;-75
2023/10/08 11:04:47;;;;;;;;;;;;;;;;;;5063932;28;20284;-75
2023/10/08 11:07:15;;;;;;;;;;;;;;;;;;5064185;28;19934;-75
2023/10/08 11:09:44;;;;;;;;;;;;;;;;;;5065323;28;19936;-75
2023/10/08 11:12:12;;;;;;;;;;;;;;;;;;5064514;28;19928;-74
2023/10/08 11:14:41;;;;;;;;;;;;;;;;;;5068561;28;20460;-75
2023/10/08 11:17:08;;;;;;;;;;;;;;;;;;5059383;28;20353;-74
2023/10/08 11:19:36;;;;;;;;;;;;;;;;;;5067881;28;19955;-75
2023/10/08 11:22:05;;;;;;;;;;;;;;;;;;5066680;28;19924;-75
2023/10/08 11:24:33;;;;;;;;;;;;;;;;;;5060016;28;19931;-76
2023/10/08 11:27:16;;;;;;;;;;;;;;;;;;5064329;28;19960;-75
2023/10/08 11:29:43;;;;;;;;;;;;;;;;;;5066114;28;20383;-76
2023/10/08 11:32:12;;;;;;;;;;;;;;;;;;5067301;28;19947;-76
2023/10/08 11:34:39;;;;;;;;;;;;;;;;;;5059708;28;20409;-77
2023/10/08 11:37:19;;;;;;;;;;;;;;;;;;5066110;28;20011;-77
2023/10/08 11:39:46;;;;;;;;;;;;;;;;;;5064895;28;19932;-76
2023/10/08 11:42:39;;;;;;;;;;;;;;;;;;5062221;28;19924;-74
2023/10/08 11:45:18;;;;;;;;;;;;;;;;;;5063381;28;19932;-76
2023/10/08 11:47:45;;;;;;;;;;;;;;;;;;5065261;28;20334;-75
2023/10/08 11:50:19;;;;;;;;;;;;;;;;;;5066319;28;19978;-75
2023/10/08 11:52:46;;;;;;;;;;;;;;;;;;5061871;28;19924;-74
2023/10/08 11:55:18;;;;;;;;;;;;;;;;;;5069428;28;19960;-76
2023/10/08 11:57:46;;;;;;;;;;;;;;;;;;5064907;28;19932;-76
2023/10/08 12:00:18;;;;;;;;;;;;;;;;;;5072380;28;19967;-75
2023/10/08 12:02:45;;;;;;;;;;;;;;;;;;5073874;28;19947;-77
2023/10/08 12:05:18;;;;;;;;;;;;;;;;;;5071654;28;19928;-76
2023/10/08 12:07:45;;;;;;;;;;;;;;;;;;5072349;28;19968;-76
2023/10/08 12:10:13;;;;;;;;;;;;;;;;;;5070710;28;20375;-76
2023/10/08 12:12:40;;;;;;;;;;;;;;;;;;5073393;28;19933;-75
2023/10/08 12:15:09;;;;;;;;;;;;;;;;;;5071706;28;20011;-75
2023/10/08 12:17:39;;;;;;;;;;;;;;;;;;5072920;28;20073;-76
2023/10/08 12:20:22;;;;;;;;;;;;;;;;;;5072805;28;20384;-77
2023/10/08 12:22:49;;;;;;;;;;;;;;;;;;5072361;28;20054;-76
2023/10/08 12:25:16;;;;;;;;;;;;;;;;;;5071224;28;19929;-76
2023/10/08 12:27:43;;;;;;;;;;;;;;;;;;5075283;28;19963;-76
2023/10/08 12:30:10;;;;;;;;;;;;;;;;;;5075434;28;19924;-76
2023/10/08 12:32:42;;;;;;;;;;;;;;;;;;5075796;28;20388;-76
2023/10/08 12:35:12;;;;;;;;;;;;;;;;;;5072517;28;19928;-76
2023/10/08 12:37:39;;;;;;;;;;;;;;;;;;5072073;28;19935;-76
2023/10/08 12:40:11;;;;;;;;;;;;;;;;;;5070811;28;19924;-76
2023/10/08 12:42:38;;;;;;;;;;;;;;;;;;5069921;28;20411;-76
2023/10/08 12:45:11;;;;;;;;;;;;;;;;;;5072590;28;20015;-76
2023/10/08 12:47:38;;;;;;;;;;;;;;;;;;5072204;28;19932;-76
2023/10/08 12:50:07;;;;;;;;;;;;;;;;;;5071557;28;19970;-76
2023/10/08 12:52:36;;;;;;;;;;;;;;;;;;5072670;28;20456;-77
2023/10/08 12:55:04;;;;;;;;;;;;;;;;;;5071088;28;19924;-77
2023/10/08 12:57:34;;;;;;;;;;;;;;;;;;5071639;28;19970;-76
2023/10/08 13:00:03;;;;;;;;;;;;;;;;;;5072939;28;19925;-76
2023/10/08 13:02:30;;;;;;;;;;;;;;;;;;5072810;28;19930;-76
2023/10/08 13:04:59;;;;;;;;;;;;;;;;;;5073133;28;19978;-76
2023/10/08 13:07:26;;;;;;;;;;;;;;;;;;5072089;28;19935;-77
2023/10/08 13:09:53;;;;;;;;;;;;;;;;;;5071865;28;19925;-77
2023/10/08 13:12:20;;;;;;;;;;;;;;;;;;5071050;28;19928;-76
2023/10/08 13:14:47;;;;;;;;;;;;;;;;;;5070392;28;19931;-77
2023/10/08 13:17:14;;;;;;;;;;;;;;;;;;5072900;28;19925;-76
2023/10/08 13:19:41;;;;;;;;;;;;;;;;;;5069237;28;19970;-76
2023/10/08 13:22:08;;;;;;;;;;;;;;;;;;5069655;28;19968;-76
2023/10/08 13:24:35;;;;;;;;;;;;;;;;;;5071311;28;19924;-76
2023/10/08 13:27:02;;;;;;;;;;;;;;;;;;5070251;28;20015;-77
2023/10/08 13:29:32;;;;;;;;;;;;;;;;;;5072410;28;20296;-76
2023/10/08 13:31:59;;;;;;;;;;;;;;;;;;5069956;28;19925;-78
2023/10/08 13:34:26;;;;;;;;;;;;;;;;;;5073299;28;19931;-76
2023/10/08 13:36:54;;;;;;;;;;;;;;;;;;5069524;28;19925;-76
2023/10/08 13:39:21;;;;;;;;;;;;;;;;;;5065890;28;19929;-76
2023/10/08 13:41:48;;;;;;;;;;;;;;;;;;5065948;28;20142;-76
2023/10/08 13:44:15;;;;;;;;;;;;;;;;;;5065059;28;19925;-76
2023/10/08 13:46:48;;;;;;;;;;;;;;;;;;5069980;28;20616;-76
2023/10/08 13:49:16;;;;;;;;;;;;;;;;;;5069911;28;20424;-76
2023/10/08 13:51:44;;;;;;;;;;;;;;;;;;5070574;28;19924;-76
2023/10/08 13:54:11;;;;;;;;;;;;;;;;;;5066433;28;19987;-76
2023/10/08 13:56:38;;;;;;;;;;;;;;;;;;5071488;28;19924;-76
2023/10/08 13:59:11;;;;;;;;;;;;;;;;;;5069371;28;19961;-75
2023/10/08 14:01:40;;;;;;;;;;;;;;;;;;5070925;28;19924;-75
2023/10/08 14:04:09;;;;;;;;;;;;;;;;;;5068761;28;19960;-75
2023/10/08 14:06:36;;;;;;;;;;;;;;;;;;5072047;28;20401;-75
2023/10/08 14:09:07;;;;;;;;;;;;;;;;;;5068634;28;19925;-75
2023/10/08 14:11:34;;;;;;;;;;;;;;;;;;5069142;28;19972;-75
2023/10/08 14:14:07;;;;;;;;;;;;;;;;;;5073236;28;19967;-75
2023/10/08 14:16:34;;;;;;;;;;;;;;;;;;5074449;28;19924;-75
2023/10/08 14:19:04;;;;;;;;;;;;;;;;;;5073790;28;20014;-75
2023/10/08 14:21:36;;;;;;;;;;;;;;;;;;5073926;28;19950;-75
2023/10/08 14:24:03;;;;;;;;;;;;;;;;;;5065218;28;19928;-76
2023/10/08 14:26:35;;;;;;;;;;;;;;;;;;5075519;28;20019;-74
2023/10/08 14:29:07;;;;;;;;;;;;;;;;;;5074928;28;20001;-74
2023/10/08 14:31:38;;;;;;;;;;;;;;;;;;5066486;28;19924;-74
2023/10/08 14:34:29;;;;;;;;;;;;;;;;;;5074640;28;19978;-75
2023/10/08 14:45:13;;;;;;;;;;;;;;;;;;5071123;28;20317;-74
2023/10/08 14:47:41;;;;;;;;;;;;;;;;;;5074119;28;19931;-74
2023/10/08 14:50:15;;;;;;;;;;;;;;;;;;5073330;28;19939;-74
2023/10/08 14:52:42;;;;;;;;;;;;;;;;;;5074495;28;20394;-74
2023/10/08 14:55:10;;;;;;;;;;;;;;;;;;5073619;28;19978;-75
2023/10/08 14:57:37;;;;;;;;;;;;;;;;;;5074378;28;19924;-75
2023/10/08 15:00:05;;;;;;;;;;;;;;;;;;5074955;28;19964;-76
2023/10/08 15:02:33;;;;;;;;;;;;;;;;;;5073648;28;20019;-77
2023/10/08 15:05:00;;;;;;;;;;;;;;;;;;5071730;28;19925;-76
2023/10/08 15:07:27;;;;;;;;;;;;;;;;;;5072920;28;19924;-76
2023/10/08 15:09:57;;;;;;;;;;;;;;;;;;5072468;28;20558;-75
2023/10/08 15:12:25;;;;;;;;;;;;;;;;;;5074276;28;19986;-75
2023/10/08 15:14:52;;;;;;;;;;;;;;;;;;5073129;28;19928;-76
2023/10/08 15:17:19;;;;;;;;;;;;;;;;;;5074672;28;19924;-76
2023/10/08 15:19:46;;;;;;;;;;;;;;;;;;5071355;28;19964;-75
2023/10/08 15:22:13;;;;;;;;;;;;;;;;;;5071355;28;20395;-76
2023/10/08 15:24:40;;;;;;;;;;;;;;;;;;5071035;28;19929;-76
2023/10/08 15:27:10;;;;;;;;;;;;;;;;;;5073634;28;19929;-76
2023/10/08 15:29:37;;;;;;;;;;;;;;;;;;5074668;28;19931;-76
2023/10/08 15:32:04;;;;;;;;;;;;;;;;;;5073317;28;20372;-76
2023/10/08 15:34:32;;;;;;;;;;;;;;;;;;5075032;28;20035;-76
2023/10/08 15:36:59;;;;;;;;;;;;;;;;;;5072919;28;19924;-76
2023/10/08 15:39:28;;;;;;;;;;;;;;;;;;5072363;28;19928;-76
2023/10/08 15:41:55;;;;;;;;;;;;;;;;;;5072236;28;20403;-76
2023/10/08 15:44:22;;;;;;;;;;;;;;;;;;5073609;28;19931;-76
2023/10/08 15:46:49;;;;;;;;;;;;;;;;;;5072718;28;19970;-76
2023/10/08 15:49:19;;;;;;;;;;;;;;;;;;5072347;28;19988;-75
2023/10/08 15:51:46;;;;;;;;;;;;;;;;;;5069412;28;19977;-76
2023/10/08 15:54:13;;;;;;;;;;;;;;;;;;5073827;28;20110;-75
2023/10/08 15:56:40;;;;;;;;;;;;;;;;;;5072568;28;19932;-76
2023/10/08 15:59:07;;;;;;;;;;;;;;;;;;5073514;28;19936;-77
2023/10/08 16:01:34;;;;;;;;;;;;;;;;;;5073194;28;19925;-76
2023/10/08 16:04:01;;;;;;;;;;;;;;;;;;5073951;28;20346;-76
2023/10/08 16:06:28;;;;;;;;;;;;;;;;;;5073104;28;19924;-76
2023/10/08 16:08:55;;;;;;;;;;;;;;;;;;5072976;28;20025;-76
2023/10/08 16:11:22;;;;;;;;;;;;;;;;;;5073903;28;19928;-76
2023/10/08 16:13:49;;;;;;;;;;;;;;;;;;5067850;28;20461;-76
2023/10/08 16:16:16;;;;;;;;;;;;;;;;;;5073732;28;19940;-76
2023/10/08 16:18:43;;;;;;;;;;;;;;;;;;5076132;28;19924;-76
2023/10/08 16:21:12;;;;;;;;;;;;;;;;;;5075012;28;19924;-77
2023/10/08 16:23:41;;;;;;;;;;;;;;;;;;5072078;28;20299;-77
2023/10/08 16:26:09;;;;;;;;;;;;;;;;;;5072005;28;19925;-76
2023/10/08 16:28:36;;;;;;;;;;;;;;;;;;5073914;28;19931;-76
2023/10/08 16:31:04;;;;;;;;;;;;;;;;;;5072478;28;19928;-76
2023/10/08 16:33:31;;;;;;;;;;;;;;;;;;5072039;28;19925;-77
2023/10/08 16:35:59;;;;;;;;;;;;;;;;;;5073164;28;19928;-77
2023/10/08 16:38:26;;;;;;;;;;;;;;;;;;5071087;28;19928;-76
2023/10/08 16:40:53;;;;;;;;;;;;;;;;;;5070655;28;19925;-77
2023/10/08 16:43:20;;;;;;;;;;;;;;;;;;5073121;28;19924;-77
2023/10/08 16:45:47;;;;;;;;;;;;;;;;;;5072436;28;20433;-78
2023/10/08 16:48:16;;;;;;;;;;;;;;;;;;5072878;28;19932;-77
2023/10/08 16:50:43;;;;;;;;;;;;;;;;;;5062771;28;19986;-77
2023/10/08 16:53:10;;;;;;;;;;;;;;;;;;5072675;28;19924;-77
2023/10/08 16:55:37;;;;;;;;;;;;;;;;;;5072718;28;19928;-78
2023/10/08 16:58:04;;;;;;;;;;;;;;;;;;5065073;28;19976;-77
2023/10/08 17:00:31;;;;;;;;;;;;;;;;;;5065346;28;19924;-77
2023/10/08 17:02:59;;;;;;;;;;;;;;;;;;5064476;28;19967;-77
2023/10/08 17:05:26;;;;;;;;;;;;;;;;;;5066687;28;19925;-77
2023/10/08 17:07:55;;;;;;;;;;;;;;;;;;5069545;28;19939;-78
2023/10/08 17:10:22;;;;;;;;;;;;;;;;;;5071428;28;19924;-77
2023/10/08 17:12:51;;;;;;;;;;;;;;;;;;5066811;28;19925;-77
2023/10/08 17:15:18;;;;;;;;;;;;;;;;;;5071430;28;19925;-77
2023/10/08 17:17:45;;;;;;;;;;;;;;;;;;5069477;28;20403;-76
2023/10/08 17:20:16;;;;;;;;;;;;;;;;;;5065647;28;19925;-76